Time;durP1;ratioP1;P1;durP2;ratioP2;P2;SDS_P1;SDS_P2;PMS_P1;PMS_P2;Temp;Humidity;BMP_temperature;BMP_pressure;BME280_temperature;BME280_humidity;BME280_pressure;Samples;Min_cycle;Max_cycle;Signal;HPM_P1;HPM_P2
2022/03/15 00:02:21;;;;;;;194.27;84.95;;;;;;;;;;5095138;28;20020;-70
2022/03/15 00:04:47;;;;;;;195.85;85.10;;;;;;;;;;5095134;28;20027;-70
2022/03/15 00:07:15;;;;;;;220.55;100.35;;;;;;;;;;5094975;28;20107;-70
2022/03/15 00:09:42;;;;;;;239.90;105.60;;;;;;;;;;5094953;28;20030;-69
2022/03/15 00:12:09;;;;;;;226.20;106.93;;;;;;;;;;5094883;28;20032;-69
2022/03/15 00:14:38;;;;;;;232.70;105.22;;;;;;;;;;5094923;28;20115;-69
2022/03/15 00:17:05;;;;;;;239.88;110.90;;;;;;;;;;5094743;28;20028;-69
2022/03/15 00:19:35;;;;;;;238.77;105.75;;;;;;;;;;5094815;28;20111;-69
2022/03/15 00:22:04;;;;;;;229.35;104.45;;;;;;;;;;5094694;28;20024;-69
2022/03/15 00:24:30;;;;;;;235.63;109.80;;;;;;;;;;5076517;28;20038;-69
2022/03/15 00:26:58;;;;;;;260.73;114.45;;;;;;;;;;5076152;28;20460;-69
2022/03/15 00:29:24;;;;;;;254.93;114.10;;;;;;;;;;5094564;28;20456;-69
2022/03/15 00:31:50;;;;;;;222.68;100.20;;;;;;;;;;5076376;28;20024;-69
2022/03/15 00:34:17;;;;;;;218.73;98.90;;;;;;;;;;5094497;28;20024;-69
2022/03/15 00:36:43;;;;;;;234.00;104.40;;;;;;;;;;5094343;28;20024;-69
2022/03/15 00:39:09;;;;;;;225.05;101.03;;;;;;;;;;5094363;28;20111;-70
2022/03/15 00:41:36;;;;;;;197.27;92.38;;;;;;;;;;5094403;28;20066;-70
2022/03/15 00:44:02;;;;;;;193.32;87.60;;;;;;;;;;5075668;28;20051;-69
2022/03/15 00:46:28;;;;;;;182.73;84.28;;;;;;;;;;5076022;28;20080;-70
2022/03/15 00:48:54;;;;;;;156.98;72.72;;;;;;;;;;5094181;28;20076;-69
2022/03/15 00:51:21;;;;;;;136.10;57.70;;;;;;;;;;5094150;28;20062;-69
2022/03/15 00:53:47;;;;;;;129.93;56.75;;;;;;;;;;5075948;28;20028;-70
2022/03/15 00:56:13;;;;;;;126.90;59.08;;;;;;;;;;5075745;28;20089;-70
2022/03/15 00:58:39;;;;;;;125.03;58.05;;;;;;;;;;5075805;28;20475;-70
2022/03/15 01:01:05;;;;;;;134.85;61.58;;;;;;;;;;5075751;28;20427;-70
2022/03/15 01:03:31;;;;;;;133.73;63.80;;;;;;;;;;5093964;28;20020;-70
2022/03/15 01:05:58;;;;;;;118.85;53.42;;;;;;;;;;5075437;28;20028;-70
2022/03/15 01:08:24;;;;;;;123.18;56.88;;;;;;;;;;5093881;28;20107;-69
2022/03/15 01:10:51;;;;;;;113.72;55.75;;;;;;;;;;5075616;28;20030;-69
2022/03/15 01:13:17;;;;;;;129.07;58.28;;;;;;;;;;5075639;28;20371;-69
2022/03/15 01:15:44;;;;;;;155.23;71.05;;;;;;;;;;5093643;28;20028;-70
2022/03/15 01:18:12;;;;;;;215.32;101.65;;;;;;;;;;5093639;28;20027;-70
2022/03/15 01:20:39;;;;;;;231.73;105.85;;;;;;;;;;5093669;28;20024;-71
2022/03/15 01:23:06;;;;;;;249.13;112.70;;;;;;;;;;5093558;28;20028;-70
2022/03/15 01:25:32;;;;;;;246.02;112.55;;;;;;;;;;5093603;28;20032;-71
2022/03/15 01:27:59;;;;;;;247.75;111.57;;;;;;;;;;5075347;28;20032;-71
2022/03/15 01:30:25;;;;;;;181.02;83.68;;;;;;;;;;5075369;28;20459;-71
2022/03/15 01:32:52;;;;;;;189.82;81.60;;;;;;;;;;5075314;28;20482;-69
2022/03/15 01:35:19;;;;;;;189.60;85.30;;;;;;;;;;5093449;28;20031;-70
2022/03/15 01:37:45;;;;;;;183.20;83.43;;;;;;;;;;5092819;28;20028;-68
2022/03/15 01:40:12;;;;;;;176.07;81.53;;;;;;;;;;5093405;28;20027;-68
2022/03/15 01:42:38;;;;;;;198.77;88.97;;;;;;;;;;5093161;28;20058;-68
2022/03/15 01:45:05;;;;;;;179.63;82.03;;;;;;;;;;5075203;28;20085;-69
2022/03/15 01:47:31;;;;;;;161.10;75.55;;;;;;;;;;5092504;28;20464;-69
2022/03/15 01:49:57;;;;;;;160.75;72.50;;;;;;;;;;5091785;28;20028;-70
2022/03/15 01:52:24;;;;;;;163.45;77.72;;;;;;;;;;5092910;28;20070;-70
2022/03/15 01:54:50;;;;;;;182.63;78.65;;;;;;;;;;5093099;28;20112;-70
2022/03/15 01:57:16;;;;;;;175.98;79.60;;;;;;;;;;5093132;28;20039;-70
2022/03/15 01:59:43;;;;;;;177.68;83.93;;;;;;;;;;5092813;28;20404;-71
2022/03/15 02:02:10;;;;;;;182.57;81.30;;;;;;;;;;5074920;28;20031;-70
2022/03/15 02:04:36;;;;;;;156.05;70.60;;;;;;;;;;5093092;28;20027;-70
2022/03/15 02:07:06;;;;;;;139.55;63.17;;;;;;;;;;5074935;28;20035;-70
2022/03/15 02:09:33;;;;;;;121.05;58.20;;;;;;;;;;5074846;28;20035;-70
2022/03/15 02:11:59;;;;;;;113.10;54.30;;;;;;;;;;5093022;28;20585;-69
2022/03/15 02:14:25;;;;;;;133.77;63.00;;;;;;;;;;5093067;28;20073;-69
2022/03/15 02:16:52;;;;;;;142.95;65.82;;;;;;;;;;5074724;28;20028;-71
2022/03/15 02:19:18;;;;;;;133.23;61.08;;;;;;;;;;5074762;28;20735;-68
2022/03/15 02:21:45;;;;;;;125.05;59.42;;;;;;;;;;5074782;28;20028;-70
2022/03/15 02:24:11;;;;;;;110.68;48.45;;;;;;;;;;5092646;28;20384;-69
2022/03/15 02:26:37;;;;;;;101.72;48.72;;;;;;;;;;5092893;28;20024;-70
2022/03/15 02:29:03;;;;;;;97.38;45.88;;;;;;;;;;5092834;28;20062;-70
2022/03/15 02:31:29;;;;;;;104.72;45.88;;;;;;;;;;5092830;28;20036;-70
2022/03/15 02:33:56;;;;;;;95.95;45.40;;;;;;;;;;5092823;28;20081;-69
2022/03/15 02:36:22;;;;;;;114.43;52.45;;;;;;;;;;5092692;28;20028;-69
2022/03/15 02:38:48;;;;;;;125.72;57.30;;;;;;;;;;5092746;28;20115;-69
2022/03/15 02:41:15;;;;;;;163.80;72.22;;;;;;;;;;5074629;28;20464;-69
2022/03/15 02:43:42;;;;;;;163.25;73.28;;;;;;;;;;5092290;28;20079;-71
2022/03/15 02:46:08;;;;;;;171.65;79.22;;;;;;;;;;5092720;28;20028;-71
2022/03/15 02:48:35;;;;;;;177.30;80.32;;;;;;;;;;5075100;28;20471;-71
2022/03/15 02:51:08;;;;;;;127.90;57.88;;;;;;;;;;5078216;28;20043;-70
2022/03/15 02:53:37;;;;;;;99.13;45.25;;;;;;;;;;5078215;28;20060;-70
2022/03/15 02:56:04;;;;;;;94.82;43.30;;;;;;;;;;5096207;28;20387;-71
2022/03/15 02:58:31;;;;;;;113.43;53.97;;;;;;;;;;5096260;28;20032;-70
2022/03/15 03:00:58;;;;;;;119.72;56.33;;;;;;;;;;5096536;28;20081;-70
2022/03/15 03:03:25;;;;;;;127.20;58.53;;;;;;;;;;5096197;28;20364;-70
2022/03/15 03:05:51;;;;;;;142.88;63.90;;;;;;;;;;5096172;28;20032;-69
2022/03/15 03:08:17;;;;;;;164.25;73.82;;;;;;;;;;5077891;28;20034;-69
2022/03/15 03:10:43;;;;;;;190.00;82.97;;;;;;;;;;5077836;28;20020;-68
2022/03/15 03:13:11;;;;;;;202.23;90.43;;;;;;;;;;5077831;28;20039;-69
2022/03/15 03:15:37;;;;;;;182.05;80.68;;;;;;;;;;5095962;28;20067;-69
2022/03/15 03:18:03;;;;;;;113.60;53.67;;;;;;;;;;5077774;28;20365;-69
2022/03/15 03:20:30;;;;;;;111.78;51.60;;;;;;;;;;5077416;28;20081;-69
2022/03/15 03:22:58;;;;;;;103.10;47.78;;;;;;;;;;5095873;28;20062;-70
2022/03/15 03:25:27;;;;;;;97.80;46.17;;;;;;;;;;5077720;28;20093;-70
2022/03/15 03:27:53;;;;;;;167.03;72.30;;;;;;;;;;5095766;28;20112;-70
2022/03/15 03:30:19;;;;;;;156.77;71.10;;;;;;;;;;5077512;28;20036;-68
2022/03/15 03:32:46;;;;;;;146.23;68.53;;;;;;;;;;5095664;28;20042;-68
2022/03/15 03:35:12;;;;;;;142.68;63.97;;;;;;;;;;5095590;28;20024;-67
2022/03/15 03:37:38;;;;;;;90.07;41.13;;;;;;;;;;5095584;28;20052;-68
2022/03/15 03:40:07;;;;;;;82.37;39.50;;;;;;;;;;5095536;28;20032;-69
2022/03/15 03:42:37;;;;;;;80.97;38.03;;;;;;;;;;5095284;28;20406;-69
2022/03/15 03:45:04;;;;;;;94.65;44.05;;;;;;;;;;5095465;28;20107;-69
2022/03/15 03:47:30;;;;;;;98.53;47.33;;;;;;;;;;5095414;28;20028;-69
2022/03/15 03:49:56;;;;;;;90.45;44.95;;;;;;;;;;5077175;28;20030;-68
2022/03/15 03:52:23;;;;;;;109.82;48.42;;;;;;;;;;5095306;28;20048;-69
2022/03/15 03:54:49;;;;;;;119.30;49.72;;;;;;;;;;5095275;28;20111;-69
2022/03/15 03:57:15;;;;;;;111.53;47.97;;;;;;;;;;5095111;28;20089;-69
2022/03/15 03:59:41;;;;;;;84.45;37.88;;;;;;;;;;5076969;28;20028;-69
2022/03/15 04:02:08;;;;;;;84.53;37.83;;;;;;;;;;5094539;28;20024;-69
2022/03/15 04:04:34;;;;;;;112.47;46.63;;;;;;;;;;5095085;28;20028;-68
2022/03/15 04:07:05;;;;;;;125.40;59.40;;;;;;;;;;5076794;28;20038;-67
2022/03/15 04:09:31;;;;;;;143.85;70.63;;;;;;;;;;5094712;28;20472;-68
2022/03/15 04:11:57;;;;;;;161.50;72.88;;;;;;;;;;5076774;28;20060;-67
2022/03/15 04:14:23;;;;;;;127.45;57.00;;;;;;;;;;5094826;28;20152;-67
2022/03/15 04:16:50;;;;;;;157.27;66.10;;;;;;;;;;5094757;28;20032;-68
2022/03/15 04:19:16;;;;;;;151.27;62.03;;;;;;;;;;5076526;28;20415;-70
2022/03/15 04:21:42;;;;;;;128.00;62.03;;;;;;;;;;5076521;28;20110;-70
2022/03/15 04:24:08;;;;;;;140.97;64.37;;;;;;;;;;5094620;28;20028;-70
2022/03/15 04:26:34;;;;;;;136.50;60.53;;;;;;;;;;5094927;28;20032;-71
2022/03/15 04:29:00;;;;;;;136.80;59.83;;;;;;;;;;5076352;28;20016;-71
2022/03/15 04:31:27;;;;;;;125.32;58.10;;;;;;;;;;5076370;28;20483;-70
2022/03/15 04:33:53;;;;;;;132.70;62.13;;;;;;;;;;5094452;28;20062;-71
2022/03/15 04:36:19;;;;;;;146.15;62.60;;;;;;;;;;5094440;28;20480;-70
2022/03/15 04:38:45;;;;;;;140.10;63.65;;;;;;;;;;5094360;28;20055;-72
2022/03/15 04:41:12;;;;;;;125.17;56.27;;;;;;;;;;5076161;28;20028;-72
2022/03/15 04:43:38;;;;;;;128.47;56.93;;;;;;;;;;5093958;28;20179;-73
2022/03/15 04:46:04;;;;;;;122.63;57.87;;;;;;;;;;5094521;28;20031;-73
2022/03/15 04:48:31;;;;;;;127.13;56.72;;;;;;;;;;5075917;28;20028;-73
2022/03/15 04:50:57;;;;;;;122.95;54.38;;;;;;;;;;5075959;28;20028;-72
2022/03/15 04:53:23;;;;;;;127.47;55.37;;;;;;;;;;5094086;28;20031;-72
2022/03/15 04:55:50;;;;;;;123.93;58.13;;;;;;;;;;5094054;28;20035;-69
2022/03/15 04:58:16;;;;;;;124.00;58.77;;;;;;;;;;5093995;28;20032;-69
2022/03/15 05:00:42;;;;;;;144.53;60.07;;;;;;;;;;5093938;28;20020;-70
2022/03/15 05:03:09;;;;;;;129.45;61.33;;;;;;;;;;5093894;28;20148;-70
2022/03/15 05:05:35;;;;;;;158.43;64.53;;;;;;;;;;5093937;28;20028;-69
2022/03/15 05:08:01;;;;;;;159.10;71.82;;;;;;;;;;5093788;28;20035;-69
2022/03/15 05:13:14;;;;;;;170.18;70.90;;;;;;;;;;5092680;28;20035;-68
2022/03/15 05:15:40;;;;;;;144.83;63.27;;;;;;;;;;5093721;28;20073;-69
2022/03/15 05:18:06;;;;;;;154.67;63.40;;;;;;;;;;5093391;28;20380;-68
2022/03/15 05:20:32;;;;;;;158.33;64.17;;;;;;;;;;5093908;28;20028;-71
2022/03/15 05:22:58;;;;;;;145.33;65.60;;;;;;;;;;5093198;28;20486;-71
2022/03/15 05:25:24;;;;;;;142.98;63.70;;;;;;;;;;5075451;28;20475;-67
2022/03/15 05:27:51;;;;;;;158.80;69.07;;;;;;;;;;5093517;28;20077;-66
2022/03/15 05:30:17;;;;;;;163.20;71.53;;;;;;;;;;5075048;28;20119;-67
2022/03/15 05:33:20;;;;;;;157.80;71.90;;;;;;;;;;5093449;28;20111;-67
2022/03/15 05:35:46;;;;;;;154.00;65.20;;;;;;;;;;5093315;28;20035;-66
2022/03/15 05:38:12;;;;;;;160.40;70.65;;;;;;;;;;5075175;28;20039;-66
2022/03/15 05:40:39;;;;;;;127.87;56.27;;;;;;;;;;5093603;28;20114;-68
2022/03/15 05:43:05;;;;;;;132.80;56.88;;;;;;;;;;5092906;28;20079;-67
2022/03/15 05:45:32;;;;;;;145.00;66.47;;;;;;;;;;5075121;28;20127;-67
2022/03/15 05:47:58;;;;;;;152.55;63.53;;;;;;;;;;5071951;28;20032;-68
2022/03/15 05:50:25;;;;;;;142.48;61.45;;;;;;;;;;5074287;28;20036;-66
2022/03/15 05:52:51;;;;;;;145.77;60.77;;;;;;;;;;5092350;28;20027;-66
2022/03/15 05:55:17;;;;;;;143.88;57.05;;;;;;;;;;5092344;28;20348;-67
2022/03/15 05:57:43;;;;;;;115.80;50.35;;;;;;;;;;5091992;28;20032;-68
2022/03/15 06:00:13;;;;;;;117.45;49.05;;;;;;;;;;5092394;28;20052;-67
2022/03/15 06:02:39;;;;;;;120.13;50.08;;;;;;;;;;5092619;28;20232;-67
2022/03/15 06:05:07;;;;;;;109.25;44.35;;;;;;;;;;5074581;28;20541;-66
2022/03/15 06:07:33;;;;;;;110.38;47.30;;;;;;;;;;5092403;28;20365;-66
2022/03/15 06:09:59;;;;;;;89.25;39.88;;;;;;;;;;5074641;28;20187;-68
2022/03/15 06:12:26;;;;;;;106.00;45.17;;;;;;;;;;5092814;28;20113;-68
2022/03/15 06:14:53;;;;;;;95.28;40.42;;;;;;;;;;5074542;28;20028;-66
2022/03/15 06:17:19;;;;;;;105.70;42.97;;;;;;;;;;5074614;28;20028;-67
2022/03/15 06:19:46;;;;;;;91.05;39.95;;;;;;;;;;5092689;28;20040;-68
2022/03/15 06:22:12;;;;;;;95.60;41.45;;;;;;;;;;5092491;28;20480;-68
2022/03/15 06:24:39;;;;;;;96.63;39.50;;;;;;;;;;5076463;28;20380;-66
2022/03/15 06:27:05;;;;;;;80.28;37.70;;;;;;;;;;5078259;28;20380;-67
2022/03/15 06:29:31;;;;;;;79.60;36.50;;;;;;;;;;5096939;28;20028;-67
2022/03/15 06:31:57;;;;;;;75.13;35.40;;;;;;;;;;5096570;28;20038;-67
2022/03/15 06:34:24;;;;;;;94.40;36.22;;;;;;;;;;5096447;28;20376;-69
2022/03/15 06:36:50;;;;;;;80.25;37.47;;;;;;;;;;5096216;28;20111;-68
2022/03/15 06:39:16;;;;;;;80.55;38.05;;;;;;;;;;5077475;28;20145;-69
2022/03/15 06:41:43;;;;;;;82.55;40.75;;;;;;;;;;5096069;28;20024;-67
2022/03/15 06:44:11;;;;;;;95.00;44.60;;;;;;;;;;5095732;28;20602;-67
2022/03/15 06:46:37;;;;;;;94.38;44.95;;;;;;;;;;5095802;28;20078;-66
2022/03/15 06:49:05;;;;;;;109.25;47.03;;;;;;;;;;5096328;28;20349;-66
2022/03/15 06:51:31;;;;;;;114.05;49.92;;;;;;;;;;5094732;28;20031;-66
2022/03/15 06:53:57;;;;;;;97.38;48.53;;;;;;;;;;5094485;28;20024;-66
2022/03/15 06:56:23;;;;;;;101.65;51.13;;;;;;;;;;5096086;28;20078;-66
2022/03/15 06:58:50;;;;;;;110.00;49.03;;;;;;;;;;5095855;28;20032;-67
2022/03/15 07:01:16;;;;;;;110.05;49.50;;;;;;;;;;5095715;28;20028;-67
2022/03/15 07:03:44;;;;;;;104.63;48.45;;;;;;;;;;5094837;28;20024;-67
2022/03/15 07:06:10;;;;;;;97.05;46.30;;;;;;;;;;5095326;28;20100;-67
2022/03/15 07:08:37;;;;;;;98.90;46.10;;;;;;;;;;5095453;28;20032;-67
2022/03/15 07:11:03;;;;;;;102.18;45.72;;;;;;;;;;5095810;28;20030;-67
2022/03/15 07:13:29;;;;;;;91.88;44.22;;;;;;;;;;5077791;28;20036;-67
2022/03/15 07:15:55;;;;;;;96.68;45.60;;;;;;;;;;5095754;28;20024;-67
2022/03/15 07:18:22;;;;;;;89.90;42.45;;;;;;;;;;5095040;28;20042;-67
2022/03/15 07:20:48;;;;;;;89.10;44.85;;;;;;;;;;5095300;28;20034;-67
2022/03/15 07:23:14;;;;;;;91.93;42.42;;;;;;;;;;5095617;28;20051;-68
2022/03/15 07:25:40;;;;;;;87.03;41.85;;;;;;;;;;5077565;28;20159;-68
2022/03/15 07:28:06;;;;;;;101.70;46.35;;;;;;;;;;5077809;28;20468;-68
2022/03/15 07:30:32;;;;;;;102.18;46.28;;;;;;;;;;5095843;28;20036;-70
2022/03/15 07:32:59;;;;;;;90.57;46.15;;;;;;;;;;5095684;28;20383;-69
2022/03/15 07:35:26;;;;;;;88.65;41.15;;;;;;;;;;5094491;28;20032;-69
2022/03/15 07:37:55;;;;;;;90.63;44.50;;;;;;;;;;5095455;28;20032;-69
2022/03/15 07:40:21;;;;;;;93.50;45.05;;;;;;;;;;5095497;28;20509;-69
2022/03/15 07:42:48;;;;;;;94.93;46.67;;;;;;;;;;5095411;28;20139;-67
2022/03/15 07:45:14;;;;;;;91.35;47.95;;;;;;;;;;5095422;28;20081;-69
2022/03/15 07:47:40;;;;;;;106.35;46.13;;;;;;;;;;5077173;28;20111;-67
2022/03/15 07:50:07;;;;;;;97.63;50.15;;;;;;;;;;5095030;28;20399;-70
2022/03/15 07:52:33;;;;;;;97.85;50.53;;;;;;;;;;5077017;28;20024;-68
2022/03/15 07:54:59;;;;;;;98.40;41.70;;;;;;;;;;5095156;28;20437;-65
2022/03/15 07:57:25;;;;;;;90.50;45.00;;;;;;;;;;5095168;28;20030;-69
2022/03/15 07:59:52;;;;;;;78.50;41.53;;;;;;;;;;5095088;28;20032;-67
2022/03/15 08:02:18;;;;;;;88.35;46.25;;;;;;;;;;5076920;28;20027;-66
2022/03/15 08:04:44;;;;;;;84.00;41.28;;;;;;;;;;5092898;28;20036;-72
2022/03/15 08:07:11;;;;;;;82.88;41.83;;;;;;;;;;5094581;28;20062;-68
2022/03/15 08:09:38;;;;;;;81.93;41.25;;;;;;;;;;5076503;28;20024;-66
2022/03/15 08:12:05;;;;;;;81.15;39.05;;;;;;;;;;5094652;28;20024;-67
2022/03/15 08:14:31;;;;;;;71.35;39.85;;;;;;;;;;5094793;28;20082;-68
2022/03/15 08:16:58;;;;;;;76.88;40.08;;;;;;;;;;5094448;28;20088;-71
2022/03/15 08:19:24;;;;;;;75.95;41.45;;;;;;;;;;5094603;28;20023;-70
2022/03/15 08:21:50;;;;;;;74.75;38.03;;;;;;;;;;5094494;28;20024;-69
2022/03/15 08:24:19;;;;;;;75.68;38.83;;;;;;;;;;5094772;28;20083;-71
2022/03/15 08:26:45;;;;;;;72.97;37.53;;;;;;;;;;5076472;28;20036;-68
2022/03/15 08:29:11;;;;;;;86.63;40.80;;;;;;;;;;5076139;28;20039;-70
2022/03/15 08:31:38;;;;;;;68.68;38.03;;;;;;;;;;5094267;28;20228;-67
2022/03/15 08:34:04;;;;;;;69.97;37.72;;;;;;;;;;5075971;28;20028;-70
2022/03/15 08:36:30;;;;;;;63.47;37.20;;;;;;;;;;5075673;28;20509;-69
2022/03/15 08:38:56;;;;;;;63.42;34.78;;;;;;;;;;5075960;28;20059;-70
2022/03/15 08:41:23;;;;;;;76.70;35.80;;;;;;;;;;5094082;28;20125;-71
2022/03/15 08:43:49;;;;;;;92.53;37.83;;;;;;;;;;5060255;28;20126;-73
2022/03/15 08:46:15;;;;;;;65.03;36.80;;;;;;;;;;5052960;28;20024;-73
2022/03/15 08:48:41;;;;;;;93.30;35.40;;;;;;;;;;5053788;28;20064;-72
2022/03/15 08:51:08;;;;;;;60.78;31.90;;;;;;;;;;5052309;28;20048;-69
2022/03/15 08:53:34;;;;;;;51.90;29.25;;;;;;;;;;5053415;28;20037;-65
2022/03/15 08:56:00;;;;;;;59.97;30.73;;;;;;;;;;5053796;28;20163;-71
2022/03/15 08:58:27;;;;;;;79.55;33.15;;;;;;;;;;5053766;28;20138;-69
2022/03/15 09:00:53;;;;;;;56.08;31.25;;;;;;;;;;5054030;28;20029;-73
2022/03/15 09:03:19;;;;;;;53.65;32.60;;;;;;;;;;5053717;28;20020;-70
2022/03/15 09:05:46;;;;;;;48.10;31.50;;;;;;;;;;5053603;28;20059;-67
2022/03/15 09:08:12;;;;;;;52.92;29.55;;;;;;;;;;5053555;28;20032;-68
2022/03/15 09:10:39;;;;;;;51.17;26.95;;;;;;;;;;5053565;28;20476;-69
2022/03/15 09:13:08;;;;;;;56.42;28.48;;;;;;;;;;5053505;28;20032;-69
2022/03/15 09:15:35;;;;;;;46.97;28.08;;;;;;;;;;5053336;28;20043;-69
2022/03/15 09:18:02;;;;;;;48.95;28.65;;;;;;;;;;5053422;28;20083;-69
2022/03/15 09:20:28;;;;;;;55.15;27.20;;;;;;;;;;5053210;28;20063;-69
2022/03/15 09:22:55;;;;;;;51.75;30.60;;;;;;;;;;5053263;28;20364;-68
2022/03/15 09:25:22;;;;;;;60.10;31.33;;;14.60;62.00;;;;;;5051629;28;20117;-68
2022/03/15 09:27:47;;;;;;;48.28;28.63;;;14.60;61.60;;;;;;5052794;28;20021;-68
2022/03/15 09:30:14;;;;;;;55.80;29.25;;;14.50;59.90;;;;;;5050324;28;20354;-68
2022/03/15 09:32:40;;;;;;;55.38;29.27;;;14.50;60.00;;;;;;5052048;28;20025;-68
2022/03/15 09:35:06;;;;;;;49.95;28.70;;;14.40;60.60;;;;;;5052541;28;20036;-67
2022/03/15 09:37:33;;;;;;;59.75;33.15;;;14.50;63.80;;;;;;5052369;28;20046;-66
2022/03/15 09:39:59;;;;;;;57.55;32.67;;;14.40;60.60;;;;;;5052419;28;20025;-65
2022/03/15 09:42:28;;;;;;;62.70;33.65;;;14.70;65.90;;;;;;5051065;28;20376;-71
2022/03/15 09:44:57;;;;;;;59.53;34.42;;;14.80;60.20;;;;;;5052602;28;20125;-68
2022/03/15 09:47:34;;;;;;;69.60;38.60;;;15.20;59.60;;;;;;5052722;28;20029;-67
2022/03/15 09:50:03;;;;;;;77.70;43.95;;;15.40;57.30;;;;;;5052268;28;20112;-67
2022/03/15 09:52:28;;;;;;;90.05;51.58;;;15.50;57.20;;;;;;5052502;28;20036;-67
2022/03/15 09:54:56;;;;;;;112.30;62.22;;;15.50;56.00;;;;;;5052480;28;20036;-65
2022/03/15 09:57:22;;;;;;;122.13;72.70;;;15.80;56.80;;;;;;5052752;28;20411;-69
2022/03/15 09:59:52;;;;;;;112.38;63.83;;;16.10;58.80;;;;;;5052113;28;20044;-68
2022/03/15 10:02:18;;;;;;;120.25;72.82;;;16.00;54.30;;;;;;5052533;28;20491;-67
2022/03/15 10:04:44;;;;;;;161.18;94.57;;;16.40;55.70;;;;;;5052815;28;20369;-66
2022/03/15 10:07:11;;;;;;;135.20;80.72;;;16.70;55.40;;;;;;5052845;28;20091;-70
2022/03/15 10:09:37;;;;;;;105.55;64.50;;;16.90;53.00;;;;;;5050817;28;20029;-72
2022/03/15 10:12:04;;;;;;;97.00;59.20;;;17.20;51.20;;;;;;5052671;28;20028;-70
2022/03/15 10:14:41;;;;;;;79.07;49.28;;;17.30;53.20;;;;;;5052598;28;20063;-70
2022/03/15 10:17:07;;;;;;;98.07;56.28;;;17.40;51.80;;;;;;5052573;28;20073;-68
2022/03/15 10:19:32;;;;;;;115.13;40.90;;;17.80;52.50;;;;;;5052479;28;20056;-71
2022/03/15 10:21:58;;;;;;;63.83;35.90;;;18.10;51.90;;;;;;5052604;28;20102;-68
2022/03/15 10:24:27;;;;;;;61.88;34.33;;;18.00;50.60;;;;;;5052829;28;20445;-71
2022/03/15 10:26:56;;;;;;;52.50;27.33;;;18.00;49.30;;;;;;5052589;28;20480;-72
2022/03/15 10:29:25;;;;;;;49.47;24.58;;;18.60;51.40;;;;;;5052145;28;20096;-72
2022/03/15 10:31:52;;;;;;;46.88;25.13;;;18.70;48.70;;;;;;5052405;28;20523;-73
2022/03/15 10:34:18;;;;;;;47.55;25.23;;;18.80;48.90;;;;;;5052501;28;20021;-72
2022/03/15 10:36:47;;;;;;;46.33;27.10;;;18.30;47.40;;;;;;5052316;28;20057;-68
2022/03/15 10:39:15;;;;;;;35.10;20.20;;;18.20;49.00;;;;;;5052282;28;20037;-69
2022/03/15 10:41:49;;;;;;;33.15;19.95;;;19.20;47.30;;;;;;5052426;28;20025;-69
2022/03/15 10:44:23;;;;;;;39.60;19.00;;;19.90;47.10;;;;;;5082096;28;20392;-70
2022/03/15 10:47:08;;;;;;;38.60;20.55;;;20.90;47.10;;;;;;5074380;28;20038;-71
2022/03/15 10:50:03;;;;;;;36.05;19.33;;;21.50;45.00;;;;;;5091927;28;20636;-71
2022/03/15 10:52:34;;;;;;;39.70;19.40;;;21.70;43.80;;;;;;5092476;28;20046;-68
2022/03/15 10:55:26;;;;;;;40.05;21.88;;;22.30;43.50;;;;;;5092397;28;20368;-68
2022/03/15 10:57:56;;;;;;;46.10;25.38;;;23.10;43.00;;;;;;5092006;28;20491;-70
2022/03/15 11:00:28;;;;;;;55.35;26.15;;;23.20;41.60;;;;;;5092431;28;20068;-71
2022/03/15 11:02:55;;;;;;;68.53;39.88;;;23.60;43.60;;;;;;5074356;28;20456;-69
2022/03/15 11:05:27;;;;;;;50.15;33.20;;;23.70;42.00;;;;;;5092660;28;20121;-71
2022/03/15 11:07:53;;;;;;;60.60;23.95;;;24.00;40.00;;;;;;5072880;28;20489;-68
2022/03/15 11:10:19;;;;;;;34.30;17.52;;;23.80;39.40;;;;;;5091586;28;20051;-71
2022/03/15 11:13:11;;;;;;;24.27;15.70;;;23.60;39.50;;;;;;5095618;28;20027;-68
2022/03/15 11:15:48;;;;;;;;;;;24.10;37.50;;;;;;5095961;28;20060;-68
2022/03/15 11:18:16;;;;;;;30.60;18.25;;;22.90;38.20;;;;;;5077313;28;19908;-71
2022/03/15 11:20:52;;;;;;;38.72;21.33;;;23.30;40.40;;;;;;5095785;28;20028;-71
2022/03/15 11:23:22;;;;;;;35.67;19.20;;;23.10;38.10;;;;;;5095744;28;20106;-71
2022/03/15 11:25:55;;;;;;;31.58;20.15;;;23.00;38.70;;;;;;5095759;28;20039;-71
2022/03/15 11:28:25;;;;;;;36.17;19.75;;;23.20;39.50;;;;;;5095383;28;20077;-70
2022/03/15 11:30:53;;;;;;;37.38;21.17;;;22.80;38.10;;;;;;5095127;28;20028;-69
2022/03/15 11:33:19;;;;;;;35.17;20.45;;;23.10;38.60;;;;;;5095539;28;20086;-71
2022/03/15 11:35:46;;;;;;;31.45;18.80;;;23.90;38.70;;;;;;5095414;28;20085;-70
2022/03/15 11:38:15;;;;;;;30.55;18.65;;;24.50;37.70;;;;;;5095664;28;20031;-71
2022/03/15 11:40:42;;;;;;;25.63;17.20;;;24.90;37.30;;;;;;5095059;28;20097;-70
2022/03/15 11:43:19;;;;;;;35.70;17.00;;;25.60;36.60;;;;;;5094859;28;20040;-71
2022/03/15 11:45:51;;;;;;;21.88;15.57;;;26.50;36.80;;;;;;5094918;28;20552;-69
2022/03/15 11:48:41;;;;;;;23.77;15.18;;;26.30;35.20;;;;;;5095054;28;20028;-70
2022/03/15 11:51:23;;;;;;;23.98;15.40;;;26.60;34.20;;;;;;5094669;28;20111;-70
2022/03/15 11:54:24;;;;;;;25.48;14.13;;;26.50;33.80;;;;;;5095020;28;20024;-70
2022/03/15 11:57:03;;;;;;;16.65;12.43;;;25.30;35.00;;;;;;5095402;28;20089;-72
2022/03/15 11:59:52;;;;;;;28.88;16.63;;;23.80;34.70;;;;;;5094906;28;20507;-69
2022/03/15 12:02:36;;;;;;;28.95;17.90;;;23.80;36.90;;;;;;5094950;28;20456;-69
2022/03/15 12:05:16;;;;;;;39.80;16.85;;;23.20;38.00;;;;;;5094651;28;20073;-70
2022/03/15 12:08:18;;;;;;;29.10;16.85;;;23.00;37.90;;;;;;5095309;28;20031;-70
2022/03/15 12:10:56;;;;;;;43.35;20.40;;;22.30;40.00;;;;;;5094220;28;20024;-71
2022/03/15 12:13:37;;;;;;;28.00;15.35;;;21.60;41.30;;;;;;5094775;28;20040;-71
2022/03/15 12:16:15;;;;;;;27.98;16.80;;;21.30;40.30;;;;;;5094673;28;20071;-71
2022/03/15 12:19:01;;;;;;;29.02;16.10;;;21.50;39.70;;;;;;5094582;28;20024;-70
2022/03/15 12:21:28;;;;;;;30.45;15.73;;;21.90;41.40;;;;;;5094158;28;20099;-71
2022/03/15 12:23:55;;;;;;;22.23;15.07;;;22.50;38.80;;;;;;5094552;28;20089;-71
2022/03/15 12:26:28;;;;;;;25.98;13.88;;;22.80;37.10;;;;;;5094301;28;20020;-71
2022/03/15 12:29:04;;;;;;;22.77;13.82;;;23.00;39.00;;;;;;5094302;28;20039;-71
2022/03/15 12:31:33;;;;;;;27.55;14.82;;;23.30;38.00;;;;;;5093730;28;20028;-70
2022/03/15 12:34:12;;;;;;;38.50;16.55;;;23.80;36.80;;;;;;5093965;28;20043;-71
2022/03/15 12:36:52;;;;;;;23.25;14.18;;;24.00;37.50;;;;;;5076004;28;20396;-71
2022/03/15 12:39:23;;;;;;;24.83;14.98;;;23.60;37.60;;;;;;5094292;28;20032;-71
2022/03/15 12:42:10;;;;;;;21.95;14.88;;;23.20;37.00;;;;;;5094292;28;20105;-69
2022/03/15 12:44:48;;;;;;;27.42;15.85;;;23.00;36.80;;;;;;5094038;28;20059;-71
2022/03/15 12:47:19;;;;;;;23.13;14.07;;;22.60;37.00;;;;;;5093822;28;20028;-71
2022/03/15 12:50:30;;;;;;;30.60;14.88;;;22.40;36.60;;;;;;5093891;28;20027;-71
2022/03/15 12:53:12;;;;;;;22.85;13.48;;;22.20;39.10;;;;;;4991824;28;20038;-71
2022/03/15 12:55:42;;;;;;;24.33;12.13;;;22.00;39.20;;;;;;4992101;28;20141;-71
2022/03/15 12:58:12;;;;;;;24.17;13.63;;;22.00;38.80;;;;;;4992013;28;20039;-71
2022/03/15 13:00:43;;;;;;;21.83;15.02;;;22.00;37.30;;;;;;4991771;28;20031;-71
2022/03/15 13:03:17;;;;;;;23.27;14.45;;;22.00;37.40;;;;;;4991771;28;20567;-71
2022/03/15 13:05:45;;;;;;;21.48;13.13;;;22.00;37.40;;;;;;4991993;28;20038;-71
2022/03/15 13:08:14;;;;;;;20.05;13.20;;;22.10;36.90;;;;;;4991846;28;20034;-71
2022/03/15 13:10:46;;;;;;;27.08;13.15;;;21.90;39.50;;;;;;4991718;28;20051;-71
2022/03/15 13:13:38;;;;;;;16.90;10.65;;;21.90;39.40;;;;;;4991894;28;20047;-71
2022/03/15 13:16:07;;;;;;;19.88;8.98;;;22.00;38.30;;;;;;4991318;28;20038;-71
2022/03/15 13:18:34;;;;;;;16.83;8.30;;;22.10;38.20;;;;;;4991642;28;20433;-72
2022/03/15 13:21:06;;;;;;;15.15;8.00;;;22.20;39.60;;;;;;4991644;28;20038;-71
2022/03/15 13:23:34;;;;;;;20.65;9.75;;;21.70;39.00;;;;;;5041641;28;20032;-71
2022/03/15 13:26:10;;;;;;;15.48;8.77;;;22.10;39.10;;;;;;5093558;28;20043;-71
2022/03/15 13:28:42;;;;;;;18.85;7.28;;;21.90;39.10;;;;;;5093522;28;20031;-71
2022/03/15 13:31:13;;;;;;;15.25;6.35;;;21.90;39.20;;;;;;5093490;28;20531;-71
2022/03/15 13:33:52;;;;;;;9.45;6.40;;;21.70;39.30;;;;;;5092671;28;20047;-71
2022/03/15 13:36:24;;;;;;;15.45;7.53;;;21.30;40.40;;;;;;5093291;28;20032;-72
2022/03/15 13:39:01;;;;;;;;;;;21.20;40.50;;;;;;5093745;28;20055;-68
2022/03/15 13:41:32;;;;;;;10.13;6.40;;;21.00;40.60;;;;;;5093246;28;19927;-71
2022/03/15 13:43:59;;;;;;;8.25;4.97;;;21.00;40.70;;;;;;5093333;28;20048;-71
2022/03/15 13:46:29;;;;;;;34.63;7.25;;;21.30;38.90;;;;;;5093309;28;20040;-71